ESND

Details ICAO ESND (EVG)
Name SVEG
Region Sweden
Timezone Europe/Stockholm (UTC+2.0)
Plans Departing 4
Arriving 4
Stats Elevation 1,178 ft / 359 m (AMSL)
Location 62.047729° 14.421031°
Runways 1
Magnetic Variation 5.064° E
Sunrise 2018-05-24 01:47:16 UTC / 2018-05-24 03:47:16 Local
Sunset 2018-05-24 20:13:54 UTC / 2018-05-24 22:13:54 Local
Advertisement - Login to hide

Runways

ID Width Length Bearing (true) Bearing (mag) Surface Threshold Offset Overrun Length
09 98 ft / 30 m 5,560 ft / 1,695 m 87.03° 81.97° Asphalt 0 ft / 0 m 0 ft / 0 m
27 98 ft / 30 m 5,560 ft / 1,695 m 267.06° 262.00° Asphalt 0 ft / 0 m 0 ft / 0 m

Approach Navaids

Runway Type Ident Frequency Range Bearing (true) Bearing (mag) Slope Elevation
09 Localiser IND 109.10 MHz 18 nm / 33 km 87.05° 81.99° - 1,178 ft / 359 m (AMSL)

Map

Weather


0- 5 10 15 20 25 30 35+ Temperature / ° C

Clouds and Precipitation
Forecast for 2018-05-24 12:00 UTC. Updated 3 hours ago

Ground ~20,000 ft ~40,000 ft Winds

METAR

ESND 241420Z AUTO 26009KT 220V290 9999 NCD 26/M03 Q1025

TAF

Not found

Frequencies

Tower 122.20 MHz AFIS
Warning: Do not use this data for real-world aviation or navigation. No guarantee of current accuracy is given.